Time;durP1;ratioP1;P1;durP2;ratioP2;P2;SDS_P1;SDS_P2;PMS_P1;PMS_P2;Temp;Humidity;BMP_temperature;BMP_pressure;BME280_temperature;BME280_humidity;BME280_pressure;Samples;Min_cycle;Max_cycle;Signal;HPM_P1;HPM_P2
2022/04/06 00:00:32;;;;;;;26.93;16.53;;;;;;;6.99;55.97;97248.75;5101490;28;20081;-67
2022/04/06 00:02:58;;;;;;;24.87;15.53;;;;;;;7.04;56.54;97251.63;5061223;28;20035;-66
2022/04/06 00:05:24;;;;;;;28.63;15.50;;;;;;;7.06;55.90;97241.69;5077958;28;20213;-66
2022/04/06 00:07:50;;;;;;;24.40;15.63;;;;;;;7.11;55.85;97240.09;5094984;28;20445;-66
2022/04/06 00:10:15;;;;;;;22.50;14.60;;;;;;;6.98;56.02;97261.09;5077579;28;20516;-69
2022/04/06 00:12:42;;;;;;;18.63;13.67;;;;;;;6.95;56.57;97250.94;5094857;28;20093;-66
2022/04/06 00:15:09;;;;;;;22.67;13.10;;;;;;;7.22;56.16;97241.38;5077991;28;20044;-67
2022/04/06 00:17:35;;;;;;;20.43;14.60;;;;;;;7.26;56.17;97232.84;5094725;28;20385;-67
2022/04/06 00:20:02;;;;;;;20.47;13.70;;;;;;;7.19;55.79;97254.97;5095083;28;20092;-67
2022/04/06 00:22:28;;;;;;;20.07;13.37;;;;;;;7.21;56.23;97240.53;5061591;28;20527;-69
2022/04/06 00:24:54;;;;;;;21.17;13.23;;;;;;;7.06;56.29;97245.13;5060962;28;20055;-66
2022/04/06 00:27:22;;;;;;;23.37;13.07;;;;;;;7.24;56.25;97252.56;5094785;28;20078;-69
2022/04/06 00:29:48;;;;;;;18.20;12.67;;;;;;;7.21;56.07;97239.75;5094880;28;20039;-67
2022/04/06 00:32:14;;;;;;;17.57;11.70;;;;;;;7.10;56.22;97264.03;5095051;28;20527;-68
2022/04/06 00:37:28;;;;;;;16.23;10.77;;;;;;;6.93;55.80;97226.59;5070937;28;20058;-66
2022/04/06 00:39:54;;;;;;;15.07;10.77;;;;;;;7.12;56.14;97262.03;5094204;28;20138;-66
2022/04/06 00:42:20;;;;;;;19.33;11.80;;;;;;;7.26;56.20;97276.94;5094147;28;20131;-67
2022/04/06 00:44:46;;;;;;;16.03;11.30;;;;;;;7.03;56.82;97263.19;5077613;28;20043;-67
2022/04/06 00:47:11;;;;;;;15.43;10.80;;;;;;;6.90;56.94;97288.47;5093208;28;20515;-68
2022/04/06 00:49:37;;;;;;;14.23;10.50;;;;;;;7.24;56.07;97282.41;5093966;28;20711;-69
2022/04/06 00:52:07;;;;;;;13.77;10.03;;;;;;;7.12;55.92;97293.69;5078092;28;20051;-67
2022/04/06 00:54:33;;;;;;;14.63;10.50;;;;;;;7.14;55.55;97263.47;5111458;28;20046;-67
2022/04/06 00:56:59;;;;;;;16.50;10.40;;;;;;;7.30;55.42;97270.25;5060577;28;20054;-66
2022/04/06 00:59:29;;;;;;;15.73;9.80;;;;;;;7.16;55.57;97247.44;5077242;28;20415;-66
2022/04/06 01:01:55;;;;;;;12.60;9.70;;;;;;;7.18;55.53;97251.50;5077547;28;20054;-66
2022/04/06 01:04:21;;;;;;;13.27;9.90;;;;;;;7.11;55.40;97249.81;5077182;28;20041;-65
2022/04/06 01:06:52;;;;;;;10.87;9.13;;;;;;;7.66;54.94;97284.03;5060521;28;20122;-66
2022/04/06 01:09:19;;;;;;;13.57;10.00;;;;;;;7.60;54.79;97280.34;5060607;28;20151;-65
2022/04/06 01:11:46;;;;;;;13.23;10.00;;;;;;;7.72;54.66;97277.97;5076897;28;20139;-66
2022/04/06 01:14:12;;;;;;;15.50;10.83;;;;;;;7.76;54.63;97279.19;5110680;28;20050;-65
2022/04/06 01:16:38;;;;;;;14.03;10.17;;;;;;;7.73;54.22;97298.09;5110454;28;20075;-65
2022/04/06 01:19:04;;;;;;;12.33;9.13;;;;;;;7.49;54.24;97275.63;5093846;28;20043;-70
2022/04/06 01:21:30;;;;;;;13.70;9.63;;;;;;;7.45;54.80;97271.75;5093784;28;20076;-67
2022/04/06 01:23:57;;;;;;;14.63;9.73;;;;;;;7.47;54.77;97282.13;5110841;28;20523;-66
2022/04/06 01:26:23;;;;;;;12.83;9.40;;;;;;;7.60;54.52;97283.00;5077051;28;20039;-67
2022/04/06 01:28:48;;;;;;;16.83;10.47;;;;;;;7.51;54.60;97300.03;5059975;28;20428;-66
2022/04/06 01:31:14;;;;;;;12.33;9.53;;;;;;;7.47;53.85;97266.28;5127602;27;20051;-66
2022/04/06 01:33:40;;;;;;;13.80;10.37;;;;;;;7.67;54.39;97298.88;5093675;28;20123;-65
2022/04/06 01:36:06;;;;;;;13.67;9.53;;;;;;;7.67;54.18;97296.25;5093249;28;20211;-65
2022/04/06 01:38:32;;;;;;;13.10;10.03;;;;;;;7.63;53.98;97316.94;5093694;28;20519;-66
2022/04/06 01:40:58;;;;;;;14.63;9.60;;;;;;;7.63;54.07;97303.72;5093555;28;20496;-67
2022/04/06 01:43:24;;;;;;;12.10;9.03;;;;;;;7.50;53.70;97316.06;5110205;28;20058;-67
2022/04/06 01:45:50;;;;;;;11.10;8.77;;;;;;;7.36;53.81;97298.50;5059641;28;20104;-68
2022/04/06 01:48:16;;;;;;;12.77;8.90;;;;;;;7.48;54.41;97294.31;5092529;28;20048;-68
2022/04/06 01:53:28;;;;;;;14.73;9.43;;;;;;;7.72;53.67;97320.25;5076847;28;20242;-69
2022/04/06 01:55:54;;;;;;;13.30;9.00;;;;;;;7.72;53.91;97309.69;5074132;28;20925;-66
2022/04/06 01:58:22;;;;;;;10.67;8.07;;;;;;;7.59;53.52;97284.00;5107993;28;20075;-66
2022/04/06 02:00:49;;;;;;;11.10;7.90;;;;;;;7.65;53.35;97328.13;5074712;28;20032;-67
2022/04/06 02:03:15;;;;;;;12.53;8.30;;;;;;;7.55;53.36;97316.31;5108629;28;20047;-66
2022/04/06 02:05:41;;;;;;;12.07;8.73;;;;;;;7.56;53.51;97310.81;5059632;28;20138;-66
2022/04/06 02:08:07;;;;;;;13.30;8.93;;;;;;;7.56;53.45;97318.75;5076160;28;20569;-66
2022/04/06 02:10:33;;;;;;;12.50;7.67;;;;;;;7.51;53.30;97329.06;5075224;28;20546;-67
2022/04/06 02:13:00;;;;;;;11.73;8.70;;;;;;;7.58;53.25;97321.97;5091411;28;20044;-66
2022/04/06 02:15:30;;;;;;;10.70;7.73;;;;;;;7.61;53.26;97328.72;5091720;28;20069;-66
2022/04/06 02:17:56;;;;;;;9.23;6.90;;;;;;;7.35;54.05;97331.22;5108344;28;20050;-66
2022/04/06 02:20:22;;;;;;;11.40;8.47;;;;;;;7.61;53.37;97323.44;5108160;28;20047;-66
2022/04/06 02:22:48;;;;;;;9.50;7.43;;;;;;;7.55;52.99;97322.38;5091076;28;20036;-66
2022/04/06 02:25:15;;;;;;;11.63;7.87;;;;;;;7.18;53.51;97335.16;5074513;28;20054;-65
2022/04/06 02:27:51;;;;;;;9.97;6.03;;;;;;;6.95;53.53;97303.72;5092244;28;20130;-65
2022/04/06 02:30:17;;;;;;;5.60;4.87;;;;;;;6.58;54.02;97352.31;5075374;28;20047;-65
2022/04/06 02:32:43;;;;;;;6.60;4.70;;;;;;;6.86;53.34;97347.91;5058874;28;20105;-66
2022/04/06 02:35:10;;;;;;;5.87;4.00;;;;;;;6.74;52.73;97349.41;5058803;28;20328;-67
2022/04/06 02:37:36;;;;;;;5.37;3.80;;;;;;;6.69;52.65;97358.88;5058460;28;20072;-68
2022/04/06 02:40:04;;;;;;;4.23;3.47;;;;;;;6.72;51.64;97369.06;5092302;28;20039;-72
2022/04/06 02:42:30;;;;;;;7.97;3.97;;;;;;;6.84;51.99;97352.53;5074443;28;20138;-68
2022/04/06 02:44:56;;;;;;;4.97;3.70;;;;;;;7.01;51.42;97362.84;5073020;28;20142;-68
2022/04/06 02:47:22;;;;;;;5.77;3.93;;;;;;;6.64;51.72;97377.91;5072841;28;20066;-68
2022/04/06 02:49:47;;;;;;;4.40;3.73;;;;;;;6.63;52.02;97394.75;5072885;28;20043;-67
2022/04/06 02:52:13;;;;;;;4.53;3.87;;;;;;;6.80;51.76;97401.41;5072524;28;20411;-67
2022/04/06 02:54:39;;;;;;;5.60;3.67;;;;;;;6.64;51.63;97393.75;5072806;28;20043;-68
2022/04/06 02:57:06;;;;;;;4.67;3.80;;;;;;;6.99;51.56;97407.06;5089655;28;20053;-70
2022/04/06 02:59:32;;;;;;;5.33;3.97;;;;;;;6.84;50.99;97393.94;5058670;28;20039;-66
2022/04/06 03:01:57;;;;;;;4.57;3.47;;;;;;;6.95;50.89;97403.19;5058139;28;20049;-67
2022/04/06 03:04:23;;;;;;;7.43;3.53;;;;;;;7.03;50.42;97410.97;5058287;28;20601;-67
2022/04/06 03:06:49;;;;;;;3.30;3.00;;;;;;;7.01;50.14;97421.72;5075007;28;20411;-67
2022/04/06 03:09:14;;;;;;;5.63;3.40;;;;;;;7.11;50.35;97424.00;5074381;28;20040;-66
2022/04/06 03:11:40;;;;;;;4.10;3.20;;;;;;;7.01;50.08;97432.25;5074607;28;20039;-66
2022/04/06 03:14:06;;;;;;;3.77;2.77;;;;;;;6.71;49.85;97434.19;5074934;28;20051;-67
2022/04/06 03:16:31;;;;;;;3.13;2.60;;;;;;;6.77;49.93;97454.56;5074447;28;20047;-67
2022/04/06 03:18:57;;;;;;;3.23;2.93;;;;;;;6.85;49.49;97462.34;5075015;28;20526;-67
2022/04/06 03:21:23;;;;;;;6.57;2.60;;;;;;;6.98;49.54;97463.47;5074608;28;20134;-69
2022/04/06 03:23:49;;;;;;;3.73;2.83;;;;;;;7.11;48.84;97467.06;5057831;28;20509;-67
2022/04/06 03:26:24;;;;;;;2.43;2.10;;;;;;;7.01;48.18;97468.38;5074682;28;20047;-67
2022/04/06 03:28:49;;;;;;;2.77;2.30;;;;;;;7.24;47.35;97487.47;5076073;28;20055;-67
2022/04/06 03:31:15;;;;;;;1.87;1.73;;;;;;;7.22;47.32;97486.84;5074998;28;20533;-67
2022/04/06 03:33:41;;;;;;;4.80;1.80;;;;;;;7.30;46.97;97492.84;5058277;28;20043;-66
2022/04/06 03:36:08;;;;;;;2.77;1.70;;;;;;;7.21;46.23;97504.50;5074555;28;20047;-66
2022/04/06 03:38:34;;;;;;;2.40;1.87;;;;;;;7.34;46.26;97502.00;5108583;28;20083;-71
2022/04/06 03:40:59;;;;;;;2.73;1.60;;;;;;;7.41;45.75;97509.97;5109731;28;20098;-66
2022/04/06 03:43:25;;;;;;;1.13;1.03;;;;;;;6.86;44.26;97479.81;5091339;28;20043;-66
2022/04/06 03:45:50;;;;;;;9.93;5.73;;;;;;;7.16;44.31;97524.56;5109131;28;20047;-67
2022/04/06 03:48:16;;;;;;;2.63;1.67;;;;;;;7.34;44.68;97531.03;5091876;28;20041;-66
2022/04/06 03:50:42;;;;;;;0.90;0.90;;;;;;;7.18;43.96;97541.03;5074578;28;20059;-68
2022/04/06 03:53:08;;;;;;;1.00;1.00;;;;;;;7.18;43.42;97536.56;5109336;28;20063;-66
2022/04/06 03:55:33;;;;;;;0.97;0.87;;;;;;;7.39;43.87;97538.38;5058002;28;20035;-66
2022/04/06 03:57:59;;;;;;;0.97;0.90;;;;;;;7.33;43.06;97547.91;5074238;28;20051;-66
2022/04/06 04:00:25;;;;;;;0.90;0.90;;;;;;;7.31;42.29;97557.00;5057547;28;20047;-67
2022/04/06 04:02:50;;;;;;;1.40;1.30;;;;;;;7.38;41.90;97552.59;5074342;28;20441;-65
2022/04/06 04:05:17;;;;;;;1.33;1.00;;;;;;;7.45;42.06;97564.88;5108381;28;20067;-66
2022/04/06 04:07:44;;;;;;;0.90;0.90;;;;;;;7.56;42.17;97560.91;5057727;28;20108;-65
2022/04/06 04:10:10;;;;;;;1.00;1.00;;;;;;;7.42;41.98;97553.84;5091148;28;20094;-66
2022/04/06 04:12:39;;;;;;;2.70;1.93;;;;;;;7.38;41.87;97560.53;5058135;28;20093;-66
2022/04/06 04:15:05;;;;;;;2.27;1.30;;;;;;;7.25;41.89;97561.22;5108277;28;20096;-74
2022/04/06 04:17:31;;;;;;;3.40;1.13;;;;;;;6.95;41.43;97586.03;5090813;28;20066;-68
2022/04/06 04:19:57;;;;;;;1.00;0.90;;;;;;;7.13;41.66;97583.00;5074130;28;20109;-67
2022/04/06 04:22:23;;;;;;;0.80;0.80;;;;;;;6.89;41.22;97584.97;5060708;28;20516;-67
2022/04/06 04:24:48;;;;;;;1.27;0.70;;;;;;;7.15;41.03;97594.19;5078240;28;20055;-66
2022/04/06 04:27:14;;;;;;;0.90;0.90;;;;;;;7.13;41.31;97596.19;5094586;28;20050;-68
2022/04/06 04:29:40;;;;;;;0.83;0.83;;;;;;;6.97;40.89;97599.88;5077037;28;20453;-67
2022/04/06 04:32:06;;;;;;;1.23;1.00;;;;;;;7.19;42.21;97596.28;5060734;28;20051;-67
2022/04/06 04:34:33;;;;;;;1.37;1.10;;;;;;;7.23;41.67;97601.97;5077735;28;20512;-65
2022/04/06 04:36:59;;;;;;;1.03;1.00;;;;;;;7.26;41.83;97583.16;5111316;28;20043;-66
2022/04/06 04:39:24;;;;;;;3.17;1.07;;;;;;;7.50;41.07;97614.47;5094335;28;20054;-66
2022/04/06 04:41:53;;;;;;;1.40;1.30;;;;;;;7.61;41.16;97616.63;5077330;28;20043;-68
2022/04/06 04:44:18;;;;;;;1.40;1.20;;;;;;;7.70;40.75;97636.63;5060787;28;20050;-66
2022/04/06 04:46:44;;;;;;;2.50;0.90;;;;;;;7.56;40.34;97640.13;5060391;28;20058;-66
2022/04/06 04:49:10;;;;;;;0.90;0.90;;;;;;;7.78;40.56;97633.88;5093909;28;20108;-66
2022/04/06 04:51:35;;;;;;;1.00;1.00;;;;;;;7.93;40.57;97618.75;5094280;28;20045;-66
2022/04/06 04:54:01;;;;;;;0.87;0.80;;;;;;;8.05;40.40;97638.38;5077701;28;20050;-66
2022/04/06 04:56:32;;;;;;;1.43;0.90;;;;;;;8.02;39.96;97636.09;5060275;28;20035;-66
2022/04/06 04:59:00;;;;;;;1.10;1.00;;;;;;;8.15;40.17;97636.19;5079134;28;20058;-66
2022/04/06 05:01:26;;;;;;;1.10;1.00;;;;;;;7.78;40.71;97649.72;5060252;28;20060;-67
2022/04/06 05:03:52;;;;;;;1.40;1.10;;;;;;;7.67;41.42;97629.06;5060152;28;20040;-67
2022/04/06 05:06:17;;;;;;;1.10;1.00;;;;;;;7.31;42.17;97652.03;5093924;28;20046;-71
2022/04/06 05:08:43;;;;;;;1.10;1.00;;;;;;;7.32;41.98;97646.56;5059970;28;20063;-70
2022/04/06 05:11:10;;;;;;;1.17;1.10;;;;;;;6.71;43.14;97639.09;5060545;28;20051;-68
2022/04/06 05:13:36;;;;;;;1.03;1.00;;;;;;;6.75;43.45;97654.38;5076866;28;20096;-70
2022/04/06 05:16:02;;;;;;;1.53;1.10;;;;;;;6.89;42.50;97664.13;5110707;28;20044;-71
2022/04/06 05:18:29;;;;;;;1.00;1.00;;;;;;;6.54;43.09;97653.47;5076496;28;20047;-70
2022/04/06 05:20:56;;;;;;;1.00;1.00;;;;;;;6.50;43.01;97665.38;5110315;28;20052;-65
2022/04/06 05:23:22;;;;;;;0.90;0.90;;;;;;;6.87;42.32;97691.69;5110273;28;20051;-65
2022/04/06 05:25:48;;;;;;;1.10;1.00;;;;;;;6.93;41.42;97672.50;5111500;28;20149;-65
2022/04/06 05:28:15;;;;;;;1.07;1.03;;;;;;;6.33;41.45;97654.19;5075781;28;20070;-66
2022/04/06 05:30:42;;;;;;;2.47;0.90;;;;;;;6.88;40.39;97696.78;5077260;28;20096;-65
2022/04/06 05:33:08;;;;;;;0.97;0.93;;;;;;;7.00;39.75;97704.22;5077116;28;20047;-65
2022/04/06 05:35:34;;;;;;;3.13;1.10;;;;;;;7.35;39.22;97708.75;5094308;28;20044;-66
2022/04/06 05:38:00;;;;;;;3.23;1.10;;;;;;;7.42;38.56;97707.84;5077688;28;20524;-67
2022/04/06 05:40:26;;;;;;;1.10;1.00;;;;;;;7.07;38.92;97715.69;5077241;28;20046;-65
2022/04/06 05:42:52;;;;;;;3.17;1.00;;;;;;;7.33;38.02;97706.31;5111069;28;20039;-65
2022/04/06 05:45:18;;;;;;;1.00;0.90;;;;;;;7.07;38.38;97700.69;5093900;28;20039;-65
2022/04/06 05:47:46;;;;;;;1.07;0.93;;;;;;;7.59;37.25;97719.81;5077163;28;20050;-64
2022/04/06 05:50:13;;;;;;;1.13;1.03;;;;;;;7.69;37.11;97738.00;5077410;28;20148;-65
2022/04/06 05:52:40;;;;;;;1.00;1.00;;;;;;;7.83;36.17;97745.06;5111018;28;20101;-64
2022/04/06 05:55:06;;;;;;;1.77;0.93;;;;;;;7.73;35.57;97736.63;5060391;28;20519;-69
2022/04/06 05:57:32;;;;;;;1.20;1.00;;;;;;;8.00;35.65;97731.44;5093871;28;20126;-67
2022/04/06 05:59:58;;;;;;;0.87;0.87;;;;;;;7.94;34.96;97705.78;5076978;28;20055;-68
2022/04/06 06:02:24;;;;;;;0.80;0.80;;;;;;;8.02;34.42;97715.41;5093633;28;20096;-67
2022/04/06 06:04:51;;;;;;;2.27;1.00;;;;;;;8.38;34.58;97724.09;5109411;28;20040;-68
2022/04/06 06:07:19;;;;;;;1.43;0.90;;;;;;;8.10;34.06;97702.06;5108869;28;20058;-67
2022/04/06 06:09:46;;;;;;;1.07;0.97;;;;;;;8.44;33.99;97736.59;5110184;28;20062;-67
2022/04/06 06:12:11;;;;;;;0.93;0.90;;;;;;;8.42;34.12;97735.94;5109945;28;20552;-68
2022/04/06 06:14:38;;;;;;;1.20;1.00;;;;;;;8.61;33.83;97747.69;5089993;28;20048;-68
2022/04/06 06:17:03;;;;;;;1.43;1.00;;;;;;;8.06;34.51;97743.91;5073366;28;20094;-66
2022/04/06 06:19:33;;;;;;;2.33;1.00;;;;;;;8.36;34.47;97756.03;5056846;28;20542;-67
2022/04/06 06:21:59;;;;;;;1.37;1.20;;;;;;;8.22;33.71;97726.97;5061372;28;20139;-67
2022/04/06 06:24:25;;;;;;;1.13;1.07;;;;;;;8.19;33.58;97748.50;5056205;28;20058;-67
2022/04/06 06:26:52;;;;;;;2.23;0.97;;;;;;;8.00;33.40;97755.25;5072783;28;20520;-70
2022/04/06 06:29:17;;;;;;;1.07;0.97;;;;;;;7.58;34.23;97757.00;5056795;28;20067;-67
2022/04/06 06:31:43;;;;;;;0.80;0.80;;;;;;;8.11;34.14;97761.84;5073042;28;20129;-67
2022/04/06 06:34:09;;;;;;;1.93;0.90;;;;;;;8.13;33.31;97781.00;5073261;28;20046;-66
2022/04/06 06:36:35;;;;;;;0.90;0.80;;;;;;;8.22;33.07;97749.00;5056548;28;20040;-67
2022/04/06 06:39:01;;;;;;;1.10;1.00;;;;;;;8.31;33.44;97778.75;5102496;28;20040;-67
2022/04/06 06:41:27;;;;;;;1.07;0.90;;;;;;;8.07;33.42;97761.41;5092617;28;20092;-68
2022/04/06 06:43:53;;;;;;;1.37;1.10;;;;;;;7.96;33.20;97776.94;5074525;28;20043;-67
2022/04/06 06:46:20;;;;;;;1.37;0.90;;;;;;;8.40;32.52;97777.63;5109325;28;20143;-67
2022/04/06 06:48:46;;;;;;;1.10;0.90;;;;;;;8.36;32.21;97773.72;5109498;28;20039;-67
2022/04/06 06:51:13;;;;;;;1.93;0.80;;;;;;;8.29;31.68;97767.53;5092270;28;20514;-67
2022/04/06 06:53:39;;;;;;;0.90;0.90;;;;;;;8.03;31.88;97769.88;5108855;28;20496;-67
2022/04/06 06:56:06;;;;;;;1.90;0.90;;;;;;;8.07;31.24;97711.16;5092273;28;20179;-67
2022/04/06 06:58:31;;;;;;;1.10;0.90;;;;;;;8.28;31.86;97776.50;5092504;28;20035;-66
2022/04/06 07:00:57;;;;;;;2.60;0.70;;;;;;;8.66;31.19;97779.69;5075143;28;20096;-66
2022/04/06 07:03:23;;;;;;;1.63;0.90;;;;;;;8.85;30.10;97795.72;5108002;28;20039;-67
2022/04/06 07:05:50;;;;;;;2.60;0.93;;;;;;;8.96;29.52;97789.91;5088556;28;20164;-68
2022/04/06 07:08:53;;;;;;;1.43;0.73;;;;;;;8.66;30.13;97746.09;5105709;28;20031;-67
2022/04/06 07:11:19;;;;;;;4.30;0.83;;;;;;;8.95;30.07;97772.38;5107037;28;20043;-67
2022/04/06 07:13:45;;;;;;;3.50;1.10;;;;;;;9.24;29.54;97796.00;5107852;28;20515;-66
2022/04/06 07:16:15;;;;;;;3.53;0.90;;;;;;;9.62;29.14;97804.38;5086394;28;20046;-66
2022/04/06 07:18:41;;;;;;;2.13;0.67;;;;;;;10.03;28.84;97806.00;5109449;28;20046;-66
2022/04/06 07:21:08;;;;;;;3.30;1.10;;;;;;;10.23;28.04;97806.91;5091004;28;20096;-66
2022/04/06 07:23:34;;;;;;;2.57;1.17;;;;;;;10.46;27.35;97793.25;5073725;28;20121;-67
2022/04/06 07:25:59;;;;;;;1.27;0.90;;;;;;;10.60;27.07;97781.66;5107691;28;20933;-67
2022/04/06 07:28:25;;;;;;;0.70;0.70;;;;;;;10.27;26.85;97792.19;5090842;28;20040;-67
2022/04/06 07:30:51;;;;;;;1.05;0.70;;;;;;;10.62;26.34;97810.66;5091541;28;20072;-67
2022/04/06 07:33:16;;;;;;;1.20;1.05;;;;;;;11.07;25.85;97805.34;5109315;28;20043;-67
2022/04/06 07:35:43;;;;;;;2.63;0.90;;;;;;;11.64;24.64;97802.81;5108153;28;20043;-68
2022/04/06 07:38:10;;;;;;;3.60;1.33;;;;;;;13.96;22.51;97782.81;5090951;28;20036;-68
2022/04/06 07:40:35;;;;;;;1.80;0.80;;;;;;;17.45;19.19;97794.53;5108195;28;20034;-68
2022/04/06 07:43:01;;;;;;;2.45;1.00;;;;;;;19.29;17.18;97823.84;5091579;28;20401;-68
2022/04/06 07:45:27;;;;;;;1.85;0.77;;;;;;;21.67;14.43;97817.94;5091027;28;20434;-69
2022/04/06 07:47:53;;;;;;;0.60;0.60;;;;;;;23.37;12.73;97819.09;5107676;28;20065;-68
2022/04/06 07:50:20;;;;;;;0.50;0.50;;;;;;;20.12;13.14;97829.22;5108201;28;20035;-69
2022/04/06 07:52:46;;;;;;;1.55;0.40;;;;;;;21.16;13.38;97819.03;5091229;28;20047;-69
2022/04/06 07:55:13;;;;;;;0.80;0.60;;;;;;;22.99;12.76;97812.56;5108982;28;20116;-69
2022/04/06 07:57:39;;;;;;;0.60;0.60;;;;;;;23.57;11.06;97799.91;5089059;28;20454;-69
2022/04/06 08:00:10;;;;;;;3.60;1.20;;;;;;;26.05;9.54;97813.28;5112006;28;20039;-74
2022/04/06 08:02:36;;;;;;;1.15;1.00;;;;;;;27.98;7.88;97824.66;5112556;28;20480;-68
2022/04/06 08:05:25;;;;;;;1.40;0.70;;;;;;;28.85;7.63;97812.91;5114856;28;20126;-68
2022/04/06 08:07:53;;;;;;;0.70;0.70;;;;;;;28.86;7.46;97834.44;5108636;28;20094;-69
2022/04/06 08:10:19;;;;;;;1.50;0.70;;;;;;;26.82;8.06;97806.78;5110406;28;20039;-70
2022/04/06 08:12:46;;;;;;;0.95;0.80;;;;;;;28.09;8.21;97813.50;5106909;28;20035;-71
2022/04/06 08:15:13;;;;;;;1.05;0.60;;;;;;;29.09;7.33;97803.16;5076021;28;20039;-71
2022/04/06 08:17:41;;;;;;;0.90;0.70;;;;;;;29.68;6.42;97806.19;5084984;28;20558;-71
2022/04/06 08:20:14;;;;;;;0.73;0.73;;;;;;;29.57;6.94;97814.69;5093929;28;20560;-71
2022/04/06 08:22:42;;;;;;;1.75;0.63;;;;;;;30.65;6.30;97805.94;5078080;28;20100;-71
2022/04/06 08:25:08;;;;;;;3.65;0.88;;;;;;;31.32;6.04;97803.91;5093671;28;20150;-72
2022/04/06 08:27:39;;;;;;;1.73;0.80;;;;;;;29.59;6.32;97809.72;5109910;28;20062;-69
2022/04/06 08:30:06;;;;;;;1.50;0.73;;;;;;;29.44;6.01;97812.97;5107961;28;20043;-71
2022/04/06 08:32:32;;;;;;;0.95;0.70;;;;;;;27.10;6.01;97810.22;5110266;28;20043;-71
2022/04/06 08:34:58;;;;;;;1.02;0.50;;;;;;;28.03;6.27;97791.78;5092718;28;20044;-69
2022/04/06 08:37:24;;;;;;;3.45;0.77;;;;;;;29.67;5.31;97801.81;5109885;28;20044;-70
2022/04/06 08:40:12;;;;;;;0.70;0.68;;;;;;;27.07;6.31;97806.22;5101653;28;20114;-69
2022/04/06 08:42:38;;;;;;;2.65;0.60;;;;;;;28.07;6.54;97802.88;5075940;28;20130;-70
2022/04/06 08:45:08;;;;;;;0.88;0.80;;;;;;;26.71;5.92;97780.88;5057024;28;20131;-70
2022/04/06 08:47:34;;;;;;;0.90;0.60;;;;;;;24.86;7.25;97799.47;5075736;28;20381;-69
2022/04/06 08:50:03;;;;;;;2.10;0.80;;;;;;;27.01;6.67;97802.00;5072957;28;20055;-70
2022/04/06 08:52:33;;;;;;;1.30;0.77;;;;;;;28.21;5.70;97816.41;5090776;28;20047;-70
2022/04/06 08:54:58;;;;;;;0.80;0.60;;;;;;;29.42;5.41;97811.66;5091986;28;20044;-70
2022/04/06 08:57:26;;;;;;;1.67;0.80;;;;;;;30.06;5.43;97807.81;5056366;28;20039;-68
2022/04/06 08:59:51;;;;;;;0.80;0.70;;;;;;;29.19;5.71;97812.97;5090684;28;20485;-73
2022/04/06 09:02:21;;;;;;;0.50;0.50;;;;;;;28.41;5.77;97813.94;5073860;28;20055;-70
2022/04/06 09:04:54;;;;;;;0.65;0.50;;;;;;;27.36;5.89;97805.81;5090651;28;20127;-69
2022/04/06 09:07:24;;;;;;;0.57;0.40;;;;;;;27.61;5.92;97805.19;5090642;28;20075;-71
2022/04/06 09:09:55;;;;;;;0.80;0.73;;;;;;;28.38;5.20;97813.75;5073478;28;20126;-70
2022/04/06 09:12:23;;;;;;;2.15;1.10;;;;;;;30.02;4.41;97819.75;5072607;28;20282;-69
2022/04/06 09:15:10;;;;;;;1.52;1.13;;;;;;;30.86;4.75;97812.31;5073812;28;20093;-71
2022/04/06 09:17:44;;;;;;;1.08;0.80;;;;;;;29.19;5.38;97832.91;5056332;28;20067;-69
2022/04/06 09:23:34;;;;;;;0.70;0.70;;;;;;;25.80;6.95;97813.75;5067886;28;20544;-64
2022/04/06 09:26:07;;;;;;;2.17;0.70;;;;;;;24.21;7.34;97807.66;5073226;28;20040;-67
2022/04/06 09:28:33;;;;;;;1.92;0.80;;;;;;;22.48;8.53;97827.44;5091087;28;20049;-67
2022/04/06 09:30:58;;;;;;;2.97;1.08;;;;;;;22.46;9.42;97777.41;5073117;28;20100;-68
2022/04/06 09:33:28;;;;;;;1.33;0.70;;;;;;;22.74;8.67;97758.56;5072752;28;20493;-68
2022/04/06 09:35:55;;;;;;;3.20;0.90;;;;;;;21.42;8.97;97809.84;5091264;28;20039;-67
2022/04/06 09:38:23;;;;;;;5.57;0.75;;;;;;;21.70;8.27;97831.72;5091248;28;20059;-68
2022/04/06 09:41:05;;;;;;;1.02;0.82;;;;;;;23.04;8.37;97820.66;5073217;28;20048;-67
2022/04/06 09:43:33;;;;;;;1.65;0.85;;;;;;;23.42;8.12;97801.97;5072961;28;20052;-68
2022/04/06 09:49:08;;;;;;;1.38;0.90;;;;;;;24.99;7.48;97806.09;5090444;28;20046;-68
2022/04/06 09:51:35;;;;;;;0.90;0.90;;;;;;;24.08;7.20;97811.09;5056027;28;20582;-69
2022/04/06 09:54:06;;;;;;;0.88;0.70;;;;;;;23.43;7.52;97785.44;5088282;28;20036;-69
2022/04/06 09:56:32;;;;;;;1.23;0.70;;;;;;;24.48;7.14;97799.72;5055345;28;20062;-70
2022/04/06 09:58:59;;;;;;;1.05;0.70;;;;;;;23.78;6.62;97808.66;5088656;28;20054;-69
2022/04/06 10:01:27;;;;;;;0.88;0.70;;;;;;;23.51;7.30;97801.03;5087258;28;20064;-69
2022/04/06 10:04:05;;;;;;;3.22;0.80;;;;;;;25.31;6.33;97808.81;5056959;28;20056;-70
2022/04/06 10:06:34;;;;;;;0.75;0.60;;;;;;;24.33;6.55;97818.91;5055461;28;20040;-69
2022/04/06 10:09:04;;;;;;;0.60;0.60;;;;;;;24.76;6.45;97820.53;5089107;28;20047;-69
2022/04/06 10:11:33;;;;;;;1.25;1.05;;;;;;;25.30;6.66;97804.50;5090323;28;20054;-69
2022/04/06 10:14:00;;;;;;;1.90;0.80;;;;;;;21.65;8.17;97817.38;5088903;28;20078;-69
2022/04/06 10:16:26;;;;;;;1.00;0.90;;;;;;;22.29;8.14;97795.88;5072597;28;20047;-68
2022/04/06 10:18:53;;;;;;;2.55;0.95;;;;;;;23.27;8.19;97789.34;5089001;28;20050;-69
2022/04/06 10:21:32;;;;;;;1.38;0.98;;;;;;;23.80;8.29;97807.25;5072350;28;20075;-68
2022/04/06 10:24:14;;;;;;;2.13;1.00;;;;;;;23.82;7.92;97815.13;5090520;28;20069;-68
2022/04/06 10:27:03;;;;;;;0.80;0.80;;;;;;;24.42;7.03;97800.88;5072510;28;20052;-69
2022/04/06 10:29:29;;;;;;;0.80;0.80;;;;;;;25.42;6.91;97804.88;5088780;28;20093;-69
2022/04/06 10:31:55;;;;;;;1.58;1.00;;;;;;;25.42;6.54;97788.56;5089205;28;20040;-68
2022/04/06 10:34:22;;;;;;;0.88;0.80;;;;;;;24.74;6.59;97763.81;5071660;28;20073;-69
2022/04/06 10:37:06;;;;;;;0.90;0.85;;;;;;;23.45;7.30;97804.09;5088737;28;20088;-67
2022/04/06 10:39:53;;;;;;;0.80;0.80;;;;;;;22.15;7.97;97809.19;5089554;28;20040;-69
2022/04/06 10:42:29;;;;;;;2.30;1.00;;;;;;;21.43;8.70;97804.16;5088197;28;20052;-68
2022/04/06 10:44:55;;;;;;;0.95;0.85;;;;;;;20.67;8.99;97805.19;5088720;28;20046;-67
2022/04/06 10:47:22;;;;;;;2.92;0.90;;;;;;;21.22;9.11;97769.34;5089919;28;20504;-67
2022/04/06 10:50:23;;;;;;;0.70;0.70;;;;;;;22.52;8.87;97800.66;5110135;28;20046;-68
2022/04/06 10:52:50;;;;;;;1.05;0.90;;;;;;;23.09;8.25;97787.31;5030409;28;20045;-69
2022/04/06 10:55:24;;;;;;;0.70;0.70;;;;;;;23.69;7.51;97788.69;5092622;28;20674;-68
2022/04/06 10:58:11;;;;;;;0.73;0.73;;;;;;;23.23;6.57;97791.78;5053136;28;20636;-68
2022/04/06 11:00:39;;;;;;;1.48;0.60;;;;;;;22.77;7.02;97806.72;5089087;28;20048;-68
2022/04/06 11:03:17;;;;;;;0.88;0.77;;;;;;;23.97;6.92;97794.09;5071574;28;20083;-68
2022/04/06 11:05:50;;;;;;;0.60;0.60;;;;;;;23.24;7.20;97782.63;5089813;28;20191;-68
2022/04/06 11:11:46;;;;;;;1.73;0.70;;;;;;;23.81;7.06;97786.38;5132216;27;20051;-68
2022/04/06 11:14:24;;;;;;;1.67;0.80;;;;;;;22.20;7.15;97813.78;5098711;28;20450;-69
2022/04/06 11:16:52;;;;;;;1.02;0.60;;;;;;;21.03;7.55;97742.13;5107305;28;20088;-68
2022/04/06 11:19:18;;;;;;;0.60;0.60;;;;;;;21.28;7.68;97785.28;5073110;28;20488;-69
2022/04/06 11:21:54;;;;;;;0.70;0.70;;;;;;;21.84;7.49;97786.03;5107999;28;20095;-68
2022/04/06 11:24:22;;;;;;;1.55;0.75;;;;;;;21.22;7.41;97780.97;5090108;28;20059;-68
2022/04/06 11:26:48;;;;;;;1.33;0.68;;;;;;;19.69;7.65;97813.38;5090317;28;20184;-66
2022/04/06 11:29:14;;;;;;;1.00;0.63;;;;;;;19.46;7.78;97776.06;5107185;28;20046;-68
2022/04/06 11:31:59;;;;;;;0.70;0.57;;;;;;;19.34;8.54;97773.53;5091140;28;20409;-68
2022/04/06 11:34:36;;;;;;;1.38;0.57;;;;;;;18.43;9.12;97801.47;5108311;28;20054;-68
2022/04/06 11:37:04;;;;;;;0.80;0.40;;;;;;;15.53;9.91;97799.19;5108129;28;20103;-67
2022/04/06 11:39:31;;;;;;;0.50;0.50;;;;;;;14.30;11.39;97762.72;5091007;28;20176;-70
2022/04/06 11:42:01;;;;;;;0.40;0.40;;;;;;;13.32;12.37;97783.34;5108186;28;20038;-67
2022/04/06 11:44:30;;;;;;;0.80;0.70;;;;;;;13.43;12.46;97784.47;5108497;28;20040;-66
2022/04/06 11:46:56;;;;;;;0.60;0.60;;;;;;;13.01;13.03;97759.44;5108163;28;20096;-66
2022/04/06 11:49:29;;;;;;;0.57;0.50;;;;;;;12.77;12.75;97767.41;5107490;28;20077;-67
2022/04/06 11:51:57;;;;;;;0.85;0.50;;;;;;;12.59;13.00;97768.13;5090735;28;20088;-67
2022/04/06 11:54:24;;;;;;;1.92;0.60;;;;;;;12.14;13.62;97771.09;5103934;28;20626;-68
2022/04/06 11:56:54;;;;;;;0.77;0.77;;;;;;;11.68;14.91;97726.13;5089895;28;20114;-67